Time;durP1;ratioP1;P1;durP2;ratioP2;P2;SDS_P1;SDS_P2;PMS_P1;PMS_P2;Temp;Humidity;BMP_temperature;BMP_pressure;BME280_temperature;BME280_humidity;BME280_pressure;Samples;Min_cycle;Max_cycle;Signal;HPM_P1;HPM_P2
2023/03/02 00:02:12;;;;;;;6.93;5.50;;;1.10;99.90;;;;;;5063902;28;20226;-54
2023/03/02 00:04:43;;;;;;;12.47;5.03;;;1.20;99.90;;;;;;5040704;28;20206;-53
2023/03/02 00:07:13;;;;;;;10.47;5.37;;;1.20;99.90;;;;;;5042098;28;20206;-52
2023/03/02 00:09:44;;;;;;;16.03;5.63;;;1.20;99.90;;;;;;5038290;28;20210;-55
2023/03/02 00:12:11;;;;;;;27.00;5.70;;;1.10;99.90;;;;;;5053939;28;20213;-54
2023/03/02 00:14:39;;;;;;;28.73;5.47;;;1.20;99.90;;;;;;5041204;28;20251;-52
2023/03/02 00:17:06;;;;;;;20.13;5.63;;;1.10;99.90;;;;;;5063044;28;20194;-55
2023/03/02 00:19:35;;;;;;;29.40;5.20;;;1.00;99.90;;;;;;5058666;28;20241;-51
2023/03/02 00:22:01;;;;;;;18.27;5.60;;;1.00;99.90;;;;;;5046005;28;20218;-55
2023/03/02 00:24:28;;;;;;;9.80;4.70;;;1.00;99.90;;;;;;5049140;28;20225;-54
2023/03/02 00:26:57;;;;;;;11.90;5.20;;;1.00;99.90;;;;;;5043443;28;20679;-52
2023/03/02 00:29:24;;;;;;;8.50;4.93;;;1.00;99.90;;;;;;5036594;28;20210;-54
2023/03/02 00:31:51;;;;;;;8.30;5.10;;;1.00;99.90;;;;;;5062059;28;20919;-51
2023/03/02 00:34:18;;;;;;;8.60;5.47;;;1.00;99.90;;;;;;5060867;28;20228;-54
2023/03/02 00:36:48;;;;;;;13.83;5.77;;;1.10;99.90;;;;;;5035864;28;20232;-52
2023/03/02 00:39:18;;;;;;;11.67;5.63;;;1.10;99.90;;;;;;5056937;28;20202;-55
2023/03/02 00:41:46;;;;;;;7.47;5.40;;;1.10;99.90;;;;;;5041588;28;20218;-54
2023/03/02 00:44:16;;;;;;;9.10;5.20;;;1.10;99.90;;;;;;5042261;28;20297;-51
2023/03/02 00:46:44;;;;;;;10.37;5.27;;;1.10;99.90;;;;;;5039263;28;20205;-52
2023/03/02 00:49:11;;;;;;;11.63;6.47;;;1.20;99.90;;;;;;5043971;28;20211;-53
2023/03/02 00:51:37;;;;;;;11.97;6.03;;;1.20;99.90;;;;;;5027789;28;23956;-56
2023/03/02 00:54:04;;;;;;;9.23;5.23;;;1.20;99.90;;;;;;5051692;28;20267;-52
2023/03/02 00:56:31;;;;;;;16.13;6.07;;;1.10;99.90;;;;;;5045892;28;20250;-53
2023/03/02 00:59:03;;;;;;;29.30;6.47;;;1.20;99.90;;;;;;5041882;28;20212;-54
2023/03/02 01:01:32;;;;;;;7.53;5.73;;;1.20;99.90;;;;;;5036963;28;20244;-52
2023/03/02 01:03:59;;;;;;;15.60;6.60;;;1.10;99.90;;;;;;5061375;28;20206;-54
2023/03/02 01:06:27;;;;;;;19.37;6.90;;;1.20;99.90;;;;;;5052325;28;20194;-53
2023/03/02 01:08:54;;;;;;;31.87;7.07;;;1.20;99.90;;;;;;5036456;28;20233;-51
2023/03/02 01:11:23;;;;;;;7.63;5.73;;;1.10;99.90;;;;;;5048872;28;20241;-53
2023/03/02 01:13:51;;;;;;;12.37;5.40;;;1.10;99.90;;;;;;5040618;28;20206;-52
2023/03/02 01:16:18;;;;;;;9.23;6.27;;;1.10;99.90;;;;;;5039857;28;20297;-53
2023/03/02 01:18:46;;;;;;;10.33;6.53;;;1.20;99.90;;;;;;5050825;28;20943;-53
2023/03/02 01:21:14;;;;;;;19.90;6.70;;;1.20;99.90;;;;;;5060778;28;20253;-51
2023/03/02 01:23:41;;;;;;;10.73;6.20;;;1.30;99.90;;;;;;5043817;28;20206;-51
2023/03/02 01:26:27;;;;;;;14.53;6.87;;;1.30;99.90;;;;;;5044558;28;20222;-53
2023/03/02 01:28:54;;;;;;;33.37;7.10;;;1.30;99.90;;;;;;5042829;28;20216;-55
2023/03/02 01:31:21;;;;;;;11.27;6.17;;;1.20;99.90;;;;;;5037912;28;20227;-53
2023/03/02 01:33:49;;;;;;;27.33;7.53;;;1.10;99.90;;;;;;5039541;28;20233;-52
2023/03/02 01:36:16;;;;;;;36.30;7.73;;;1.10;99.90;;;;;;5041166;28;20229;-50
2023/03/02 01:38:43;;;;;;;12.73;6.60;;;1.00;99.90;;;;;;5038467;28;20212;-53
2023/03/02 01:41:11;;;;;;;11.17;6.07;;;0.90;99.90;;;;;;5048663;28;20295;-56
2023/03/02 01:43:38;;;;;;;15.70;5.70;;;1.00;99.90;;;;;;5040531;28;20195;-55
2023/03/02 01:46:07;;;;;;;21.23;6.17;;;1.00;99.90;;;;;;5043327;28;20719;-54
2023/03/02 01:48:45;;;;;;;11.47;5.83;;;1.00;99.90;;;;;;5039674;28;20193;-52
2023/03/02 01:51:20;;;;;;;13.63;6.07;;;1.00;99.90;;;;;;5040266;28;20238;-50
2023/03/02 01:53:52;;;;;;;10.97;5.97;;;1.00;99.90;;;;;;5040384;28;20208;-56
2023/03/02 01:56:41;;;;;;;38.13;6.83;;;1.00;99.90;;;;;;5042280;28;20216;-54
2023/03/02 01:59:12;;;;;;;15.83;6.17;;;1.00;99.90;;;;;;5042411;28;20705;-53
2023/03/02 02:02:04;;;;;;;11.43;5.93;;;1.00;99.90;;;;;;5057237;28;20258;-54
2023/03/02 02:04:34;;;;;;;8.07;5.53;;;0.90;99.90;;;;;;5044970;28;20202;-54
2023/03/02 02:07:05;;;;;;;10.00;5.87;;;0.90;99.90;;;;;;5051270;28;20220;-52
2023/03/02 02:09:36;;;;;;;9.10;6.10;;;0.90;99.90;;;;;;5047466;28;20205;-56
2023/03/02 02:12:04;;;;;;;8.57;6.10;;;0.90;99.90;;;;;;5036138;28;20230;-56
2023/03/02 02:14:31;;;;;;;21.90;6.80;;;0.90;99.90;;;;;;5047649;28;20205;-53
2023/03/02 02:16:58;;;;;;;13.60;6.07;;;0.90;99.90;;;;;;5051530;28;20592;-54
2023/03/02 02:19:40;;;;;;;19.20;6.47;;;0.90;99.90;;;;;;5050802;28;20228;-52
2023/03/02 02:22:09;;;;;;;9.20;6.57;;;0.90;99.90;;;;;;5040666;28;20245;-55
2023/03/02 02:24:42;;;;;;;11.97;5.93;;;0.90;99.90;;;;;;5046894;28;20202;-56
2023/03/02 02:27:11;;;;;;;18.30;6.60;;;0.90;99.90;;;;;;5036811;28;20229;-55
2023/03/02 02:29:44;;;;;;;12.53;6.30;;;0.90;99.90;;;;;;5046588;28;20269;-54
2023/03/02 02:32:15;;;;;;;9.83;6.37;;;0.90;99.90;;;;;;5044316;28;20221;-49
2023/03/02 02:34:46;;;;;;;12.03;6.97;;;0.90;99.90;;;;;;5045997;28;20198;-52
2023/03/02 02:37:19;;;;;;;19.67;6.80;;;0.90;99.90;;;;;;5053211;28;20563;-54
2023/03/02 02:39:49;;;;;;;16.67;6.70;;;0.90;99.90;;;;;;5039956;28;20209;-53
2023/03/02 02:42:24;;;;;;;35.80;7.27;;;0.90;99.90;;;;;;5045292;28;20246;-56
2023/03/02 02:44:52;;;;;;;26.47;6.73;;;0.70;99.90;;;;;;5054992;28;20669;-54
2023/03/02 02:47:21;;;;;;;12.37;6.13;;;0.70;99.90;;;;;;5048026;28;20275;-51
2023/03/02 02:49:51;;;;;;;9.90;6.17;;;0.70;99.90;;;;;;5042715;28;20241;-54
2023/03/02 02:52:22;;;;;;;45.23;7.20;;;0.60;99.90;;;;;;5061660;28;20213;-52
2023/03/02 02:54:52;;;;;;;18.10;6.03;;;0.60;99.90;;;;;;5063733;28;20644;-52
2023/03/02 02:57:23;;;;;;;85.73;12.23;;;0.60;99.90;;;;;;5045773;28;21121;-52
2023/03/02 02:59:53;;;;;;;11.97;5.63;;;0.60;99.90;;;;;;5055578;28;20276;-55
2023/03/02 03:02:22;;;;;;;8.67;5.53;;;0.50;99.90;;;;;;5042385;28;20276;-53
2023/03/02 03:04:50;;;;;;;29.70;6.23;;;0.50;99.90;;;;;;5040811;28;20209;-54
2023/03/02 03:07:21;;;;;;;24.53;6.03;;;0.60;99.90;;;;;;5046997;28;20185;-51
2023/03/02 03:09:55;;;;;;;11.33;6.27;;;0.50;99.90;;;;;;5051238;28;20233;-51
2023/03/02 03:12:25;;;;;;;20.80;6.17;;;0.50;99.90;;;;;;5042072;28;20230;-53
2023/03/02 03:14:54;;;;;;;60.57;8.23;;;0.50;99.90;;;;;;5037246;28;20237;-55
2023/03/02 03:17:21;;;;;;;33.63;7.03;;;0.40;99.90;;;;;;5052832;28;20970;-51
2023/03/02 03:19:54;;;;;;;29.80;7.20;;;0.40;99.90;;;;;;5042526;28;20707;-52
2023/03/02 03:22:21;;;;;;;31.67;6.97;;;0.40;99.90;;;;;;5052735;28;20227;-53
2023/03/02 03:24:50;;;;;;;42.57;8.33;;;0.40;99.90;;;;;;5063244;28;20509;-54
2023/03/02 03:27:18;;;;;;;92.87;9.17;;;0.40;99.90;;;;;;5061503;28;20947;-55
2023/03/02 03:29:47;;;;;;;46.83;6.77;;;0.40;99.90;;;;;;5048572;28;20210;-56
2023/03/02 03:32:36;;;;;;;50.67;7.17;;;0.30;99.90;;;;;;5051734;28;20581;-52
2023/03/02 03:35:24;;;;;;;33.97;6.33;;;0.30;99.90;;;;;;5054592;28;20230;-52
2023/03/02 03:37:52;;;;;;;29.33;6.90;;;0.30;99.90;;;;;;5039993;28;20706;-54
2023/03/02 03:40:19;;;;;;;28.03;6.53;;;0.30;99.90;;;;;;5055557;28;20209;-53
2023/03/02 03:42:47;;;;;;;46.97;7.70;;;0.30;99.90;;;;;;5062670;28;20220;-50
2023/03/02 03:45:16;;;;;;;24.63;6.80;;;0.40;99.90;;;;;;5038636;28;20295;-50
2023/03/02 03:47:43;;;;;;;13.07;5.63;;;0.40;99.90;;;;;;5046693;28;20718;-52
2023/03/02 03:50:11;;;;;;;13.43;6.77;;;0.40;99.90;;;;;;5039492;28;20205;-53
2023/03/02 03:52:39;;;;;;;54.20;7.53;;;0.40;99.90;;;;;;5045214;28;20219;-54
2023/03/02 03:55:15;;;;;;;49.23;7.17;;;0.40;99.90;;;;;;5049839;28;20204;-55
2023/03/02 03:57:43;;;;;;;37.37;7.77;;;0.40;99.90;;;;;;5043898;28;20234;-53
2023/03/02 04:00:13;;;;;;;42.97;8.20;;;0.50;99.90;;;;;;5029090;28;20225;-49
2023/03/02 04:03:00;;;;;;;29.80;6.63;;;0.40;99.90;;;;;;5054144;28;20324;-54
2023/03/02 04:05:29;;;;;;;17.67;5.77;;;0.30;99.90;;;;;;5048510;28;20325;-54
2023/03/02 04:08:00;;;;;;;10.73;5.50;;;0.20;99.90;;;;;;5047525;28;20205;-53
2023/03/02 04:10:29;;;;;;;17.30;6.07;;;0.20;99.90;;;;;;5049242;28;20951;-52
2023/03/02 04:12:56;;;;;;;30.33;6.50;;;0.20;99.90;;;;;;5061058;28;20218;-52
2023/03/02 04:15:23;;;;;;;53.10;7.70;;;0.10;99.90;;;;;;5030032;28;20301;-51
2023/03/02 04:17:52;;;;;;;37.07;7.73;;;0.10;99.90;;;;;;5054450;28;20226;-54
2023/03/02 04:20:23;;;;;;;51.80;8.50;;;0.00;99.90;;;;;;5045665;28;20227;-51
2023/03/02 04:22:55;;;;;;;29.00;6.17;;;0.00;99.90;;;;;;5045210;28;20231;-51
2023/03/02 04:25:28;;;;;;;12.93;5.60;;;-0.10;99.90;;;;;;5041458;28;20804;-51
2023/03/02 04:28:05;;;;;;;8.60;5.53;;;0.00;99.90;;;;;;5060746;28;20191;-53
2023/03/02 04:30:36;;;;;;;43.50;7.67;;;0.00;99.90;;;;;;5055928;28;20209;-52
2023/03/02 04:33:03;;;;;;;35.00;7.10;;;0.00;99.90;;;;;;5027834;28;20248;-52
2023/03/02 04:35:33;;;;;;;23.90;6.47;;;0.00;99.90;;;;;;5043371;28;20560;-54
2023/03/02 04:38:01;;;;;;;15.23;6.57;;;0.00;99.90;;;;;;5041653;28;20231;-50
2023/03/02 04:40:28;;;;;;;35.53;7.37;;;0.00;99.90;;;;;;5059282;28;20611;-51
2023/03/02 04:42:55;;;;;;;34.87;7.47;;;0.00;99.90;;;;;;5059550;28;20278;-50
2023/03/02 04:45:23;;;;;;;52.23;8.10;;;-0.10;99.90;;;;;;5058926;28;20835;-49
2023/03/02 04:47:50;;;;;;;19.23;6.80;;;-0.10;99.90;;;;;;5038357;28;20934;-50
2023/03/02 04:50:17;;;;;;;18.67;7.00;;;-0.10;99.90;;;;;;5057830;28;20249;-50
2023/03/02 04:52:45;;;;;;;22.07;7.20;;;-0.10;99.90;;;;;;5040631;28;20317;-55
2023/03/02 04:55:18;;;;;;;42.17;9.43;;;-0.10;99.90;;;;;;5043999;28;20715;-49
2023/03/02 04:57:45;;;;;;;35.57;7.77;;;-0.10;99.90;;;;;;5039842;28;20221;-51
2023/03/02 05:00:13;;;;;;;13.27;7.20;;;-0.10;99.90;;;;;;5059522;28;20215;-53
2023/03/02 05:02:40;;;;;;;39.03;8.27;;;-0.10;99.90;;;;;;5031305;28;20239;-53
2023/03/02 05:05:08;;;;;;;26.93;7.83;;;-0.10;99.90;;;;;;5044002;28;20219;-50
2023/03/02 05:07:35;;;;;;;12.33;7.03;;;-0.10;99.90;;;;;;5043060;28;20232;-53
2023/03/02 05:10:03;;;;;;;27.77;8.37;;;-0.10;99.90;;;;;;5058787;28;20296;-50
2023/03/02 05:12:56;;;;;;;25.03;7.17;;;-0.10;99.90;;;;;;5049868;28;20220;-54
2023/03/02 05:15:18;;;;;;;9.67;6.87;;;0.00;99.90;;;;;;5057217;28;20577;-50
2023/03/02 05:17:44;;;;;;;23.23;7.80;;;0.00;99.90;;;;;;5044778;28;20239;-51
2023/03/02 05:20:12;;;;;;;24.90;7.07;;;0.00;99.90;;;;;;5057378;28;20200;-50
2023/03/02 05:22:38;;;;;;;29.40;8.20;;;0.00;99.90;;;;;;5031577;28;20632;-54
2023/03/02 05:25:08;;;;;;;36.17;8.60;;;0.00;99.90;;;;;;5047035;28;20612;-52
2023/03/02 05:27:35;;;;;;;23.47;6.97;;;0.00;99.90;;;;;;5046063;28;20211;-54
2023/03/02 05:30:02;;;;;;;29.67;7.40;;;0.10;99.90;;;;;;5038962;28;20203;-54
2023/03/02 05:32:30;;;;;;;49.53;8.47;;;0.10;99.90;;;;;;5047869;28;20217;-51
2023/03/02 05:34:56;;;;;;;40.73;8.03;;;0.10;99.90;;;;;;5033042;28;20215;-51
2023/03/02 05:37:23;;;;;;;41.37;8.97;;;0.10;99.90;;;;;;5040620;28;21041;-50
2023/03/02 05:39:50;;;;;;;27.67;8.60;;;0.10;99.90;;;;;;5047509;28;20231;-52
2023/03/02 05:42:18;;;;;;;44.27;8.80;;;0.10;99.90;;;;;;5040547;28;20220;-54
2023/03/02 05:44:44;;;;;;;52.70;10.23;;;0.10;99.90;;;;;;5044118;28;20197;-52
2023/03/02 05:47:11;;;;;;;47.63;8.77;;;0.10;99.90;;;;;;5049582;28;20197;-51
2023/03/02 05:49:38;;;;;;;54.07;8.90;;;0.10;99.90;;;;;;5039337;28;20306;-51
2023/03/02 05:52:05;;;;;;;25.87;7.70;;;0.10;99.90;;;;;;5054164;28;20268;-54
2023/03/02 05:54:32;;;;;;;31.93;8.13;;;0.10;99.90;;;;;;5032758;28;20204;-56
2023/03/02 05:57:01;;;;;;;18.53;7.90;;;0.10;99.90;;;;;;5049623;28;20212;-53
2023/03/02 05:59:29;;;;;;;45.47;9.10;;;0.20;99.90;;;;;;5048551;28;20241;-51
2023/03/02 06:01:57;;;;;;;25.47;8.90;;;0.20;99.90;;;;;;5047185;28;20228;-50
2023/03/02 06:04:24;;;;;;;21.07;8.10;;;0.20;99.90;;;;;;5026165;28;20215;-53
2023/03/02 06:06:51;;;;;;;21.27;7.80;;;0.20;99.90;;;;;;5043402;28;20257;-50
2023/03/02 06:09:18;;;;;;;17.10;7.53;;;0.20;99.90;;;;;;5036321;28;20793;-51
2023/03/02 06:11:44;;;;;;;14.77;7.43;;;0.20;99.90;;;;;;5050051;28;20222;-54
2023/03/02 06:14:11;;;;;;;17.13;8.23;;;0.30;99.90;;;;;;5043133;28;20293;-53
2023/03/02 06:16:39;;;;;;;15.47;7.37;;;0.30;99.90;;;;;;5059246;28;20225;-53
2023/03/02 06:19:06;;;;;;;29.80;8.07;;;0.30;99.90;;;;;;5054333;28;20254;-54
2023/03/02 06:21:33;;;;;;;26.63;7.77;;;0.30;99.90;;;;;;5023651;28;20334;-54
2023/03/02 06:24:00;;;;;;;18.00;7.20;;;0.20;99.90;;;;;;5053502;28;20213;-51
2023/03/02 06:26:26;;;;;;;16.97;7.73;;;0.30;99.90;;;;;;5033633;28;20208;-51
2023/03/02 06:28:54;;;;;;;20.87;7.77;;;0.30;99.90;;;;;;5052962;28;20215;-52
2023/03/02 06:31:44;;;;;;;26.87;8.43;;;0.30;99.90;;;;;;5053216;28;20302;-56
2023/03/02 06:34:11;;;;;;;13.17;7.47;;;0.30;99.90;;;;;;5048106;28;20200;-52
2023/03/02 06:36:38;;;;;;;17.77;8.00;;;0.20;99.90;;;;;;5037230;28;20213;-52
2023/03/02 06:39:05;;;;;;;27.53;7.77;;;0.30;99.90;;;;;;5039990;28;20290;-53
2023/03/02 06:41:33;;;;;;;19.60;7.07;;;0.30;99.90;;;;;;5045274;28;20389;-58
2023/03/02 06:43:59;;;;;;;20.07;7.73;;;0.30;99.90;;;;;;5041304;28;20232;-55
2023/03/02 06:46:26;;;;;;;28.87;8.20;;;0.40;99.90;;;;;;5040979;28;20203;-54
2023/03/02 06:48:55;;;;;;;31.23;7.47;;;0.40;99.90;;;;;;5046694;28;20276;-55
2023/03/02 06:51:21;;;;;;;45.67;7.90;;;0.30;99.90;;;;;;5033702;28;23767;-54
2023/03/02 06:53:48;;;;;;;36.20;7.83;;;0.30;99.90;;;;;;5044834;28;20217;-53
2023/03/02 06:56:15;;;;;;;17.80;7.57;;;0.30;99.90;;;;;;5038692;28;20230;-54
2023/03/02 06:58:42;;;;;;;22.70;8.73;;;0.20;99.90;;;;;;5047050;28;20296;-55
2023/03/02 07:01:34;;;;;;;16.57;7.50;;;0.20;99.90;;;;;;5049308;28;20361;-57
2023/03/02 07:04:03;;;;;;;22.30;8.17;;;0.20;99.90;;;;;;5056399;28;20207;-56
2023/03/02 07:06:29;;;;;;;35.43;8.27;;;0.30;99.90;;;;;;5043622;28;20209;-55
2023/03/02 07:08:57;;;;;;;30.67;8.07;;;0.30;99.90;;;;;;5058182;28;20227;-55
2023/03/02 07:11:44;;;;;;;34.43;8.13;;;0.30;99.90;;;;;;5052249;28;20238;-56
2023/03/02 07:14:10;;;;;;;14.77;7.33;;;0.30;99.90;;;;;;5038027;28;20220;-55
2023/03/02 07:16:38;;;;;;;21.50;8.60;;;0.30;99.90;;;;;;5055041;28;20198;-54
2023/03/02 07:19:06;;;;;;;17.93;8.00;;;0.30;99.90;;;;;;5048275;28;20184;-56
2023/03/02 07:21:54;;;;;;;47.13;9.07;;;0.40;99.90;;;;;;5042157;28;20812;-53
2023/03/02 07:24:21;;;;;;;28.93;8.00;;;0.40;99.90;;;;;;5044111;28;20192;-56
2023/03/02 07:26:48;;;;;;;33.67;8.60;;;0.40;99.90;;;;;;5051056;28;20358;-54
2023/03/02 07:29:36;;;;;;;18.43;7.27;;;0.40;99.90;;;;;;5047592;28;20223;-55
2023/03/02 07:32:05;;;;;;;43.10;8.50;;;0.40;99.90;;;;;;5051556;28;20220;-54
2023/03/02 07:34:33;;;;;;;26.10;8.53;;;0.40;99.90;;;;;;5050945;28;20288;-55
2023/03/02 07:37:01;;;;;;;20.83;8.60;;;0.40;99.90;;;;;;5045577;28;20202;-55
2023/03/02 07:39:49;;;;;;;28.00;8.77;;;0.50;99.90;;;;;;5043886;28;20224;-54
2023/03/02 07:42:17;;;;;;;20.87;8.37;;;0.50;99.90;;;;;;5046986;28;20378;-56
2023/03/02 07:44:47;;;;;;;40.17;8.27;;;0.60;99.90;;;;;;5041608;28;20203;-52
2023/03/02 07:47:36;;;;;;;21.37;9.17;;;0.60;99.90;;;;;;5040796;28;20687;-52
2023/03/02 07:50:05;;;;;;;30.80;8.57;;;0.60;99.90;;;;;;5044087;28;20246;-55
2023/03/02 07:52:34;;;;;;;25.47;8.20;;;0.60;99.90;;;;;;5036243;28;20303;-56
2023/03/02 07:55:01;;;;;;;25.37;8.17;;;0.60;99.90;;;;;;5034608;28;20209;-56
2023/03/02 07:57:28;;;;;;;20.20;9.10;;;0.70;99.90;;;;;;5039338;28;20857;-54
2023/03/02 07:59:55;;;;;;;32.80;8.83;;;0.70;99.90;;;;;;5046725;28;20287;-55
2023/03/02 08:02:24;;;;;;;37.03;8.30;;;0.70;99.90;;;;;;5037865;28;20229;-54
2023/03/02 08:04:51;;;;;;;23.90;9.10;;;0.70;99.90;;;;;;5055256;28;20206;-55
2023/03/02 08:07:20;;;;;;;22.23;8.80;;;0.70;99.90;;;;;;5048658;28;20185;-54
2023/03/02 08:09:47;;;;;;;28.37;8.53;;;0.70;99.90;;;;;;5037606;28;20213;-52
2023/03/02 08:12:15;;;;;;;35.37;9.00;;;0.70;99.90;;;;;;5051966;28;20217;-54
2023/03/02 08:14:42;;;;;;;46.90;9.80;;;0.70;99.90;;;;;;5039211;28;20200;-55
2023/03/02 08:17:11;;;;;;;18.03;8.00;;;0.70;99.90;;;;;;5045896;28;20209;-56
2023/03/02 08:19:38;;;;;;;20.43;9.03;;;0.70;99.90;;;;;;5046991;28;20695;-52
2023/03/02 08:22:05;;;;;;;18.47;8.17;;;0.80;99.90;;;;;;5052285;28;20253;-56
2023/03/02 08:24:35;;;;;;;20.07;8.47;;;0.80;99.90;;;;;;5048238;28;20201;-56
2023/03/02 08:27:02;;;;;;;18.80;8.70;;;0.90;99.90;;;;;;5033111;28;20279;-53
2023/03/02 08:29:29;;;;;;;33.67;8.50;;;0.90;99.90;;;;;;5053325;28;20214;-56
2023/03/02 08:31:58;;;;;;;24.17;8.13;;;0.90;99.90;;;;;;5042769;28;20621;-54
2023/03/02 08:34:27;;;;;;;34.60;9.17;;;0.80;99.90;;;;;;5042260;28;20785;-51
2023/03/02 08:37:15;;;;;;;28.47;8.07;;;0.80;99.90;;;;;;5050456;28;21213;-55
2023/03/02 08:39:43;;;;;;;26.50;8.03;;;0.70;99.90;;;;;;5051067;28;20244;-52
2023/03/02 08:42:10;;;;;;;29.10;7.90;;;0.70;99.90;;;;;;5035200;28;20217;-50
2023/03/02 08:44:37;;;;;;;19.37;7.33;;;0.60;99.90;;;;;;5056183;28;20217;-53
2023/03/02 08:47:03;;;;;;;16.27;7.80;;;0.70;99.90;;;;;;5040424;28;20209;-53
2023/03/02 08:49:50;;;;;;;16.97;7.70;;;0.80;99.90;;;;;;5041959;28;20208;-54
2023/03/02 08:52:17;;;;;;;18.07;7.30;;;0.90;99.90;;;;;;5053175;28;20245;-55
2023/03/02 08:54:46;;;;;;;23.53;8.03;;;0.90;99.90;;;;;;5050468;28;20225;-53
2023/03/02 08:57:12;;;;;;;19.77;8.27;;;1.00;99.90;;;;;;5032202;28;20202;-53
2023/03/02 08:59:40;;;;;;;15.67;8.20;;;1.00;99.90;;;;;;5051736;28;20551;-55
2023/03/02 09:02:10;;;;;;;10.70;6.70;;;1.10;99.90;;;;;;5036593;28;20228;-55
2023/03/02 09:04:58;;;;;;;11.43;6.87;;;1.20;99.90;;;;;;5048143;28;20208;-54
2023/03/02 09:07:44;;;;;;;13.07;7.23;;;1.30;99.90;;;;;;5053931;28;20560;-51
2023/03/02 09:10:12;;;;;;;14.67;7.87;;;1.40;99.90;;;;;;5049863;28;20221;-54
2023/03/02 09:12:39;;;;;;;11.17;6.30;;;1.40;99.90;;;;;;5030152;28;20305;-54
2023/03/02 09:15:07;;;;;;;12.60;7.33;;;1.40;99.90;;;;;;5046162;28;20280;-55
2023/03/02 09:17:35;;;;;;;17.87;8.13;;;1.40;99.90;;;;;;5042619;28;20327;-54
2023/03/02 09:20:01;;;;;;;15.03;7.30;;;1.50;99.90;;;;;;5045869;28;20252;-54
2023/03/02 09:22:30;;;;;;;12.87;7.13;;;1.40;99.90;;;;;;5054019;28;20230;-56
2023/03/02 09:25:18;;;;;;;15.80;7.77;;;1.50;99.90;;;;;;5049091;28;20236;-55
2023/03/02 09:27:45;;;;;;;21.23;8.20;;;1.50;99.90;;;;;;5045717;28;20202;-54
2023/03/02 09:30:14;;;;;;;17.07;8.67;;;1.50;99.90;;;;;;5044576;28;20666;-54
2023/03/02 09:32:42;;;;;;;12.47;6.90;;;1.50;99.90;;;;;;5042570;28;20227;-56
2023/03/02 09:35:09;;;;;;;15.63;7.60;;;1.60;99.90;;;;;;5030031;28;20228;-55
2023/03/02 09:37:37;;;;;;;11.37;7.00;;;1.60;99.90;;;;;;5056696;28;20202;-54
2023/03/02 09:40:13;;;;;;;13.53;6.83;;;1.60;99.90;;;;;;5043208;28;20198;-54
2023/03/02 09:43:01;;;;;;;9.70;6.43;;;1.60;99.90;;;;;;5047199;28;20218;-54
2023/03/02 09:45:39;;;;;;;9.50;5.53;;;1.60;99.90;;;;;;5050348;28;20312;-51
2023/03/02 09:48:16;;;;;;;8.03;5.57;;;1.70;99.90;;;;;;5040486;28;20279;-55
2023/03/02 09:50:53;;;;;;;11.60;6.73;;;1.60;99.90;;;;;;5045037;28;20210;-56
2023/03/02 09:53:41;;;;;;;9.13;6.00;;;1.70;99.90;;;;;;5043482;28;20202;-56
2023/03/02 09:56:15;;;;;;;13.47;7.03;;;1.60;99.90;;;;;;5043705;28;20194;-56
2023/03/02 09:58:48;;;;;;;12.47;6.50;;;1.70;99.90;;;;;;5043967;28;20219;-53
2023/03/02 10:01:20;;;;;;;9.40;6.17;;;1.70;99.90;;;;;;5036218;28;20976;-55
2023/03/02 10:03:53;;;;;;;8.90;6.23;;;1.70;99.90;;;;;;5044852;28;20681;-53
2023/03/02 10:06:20;;;;;;;11.67;7.40;;;1.80;99.90;;;;;;5044425;28;20814;-56
2023/03/02 10:08:49;;;;;;;9.67;6.67;;;1.70;99.90;;;;;;5047517;28;20206;-53
2023/03/02 10:11:29;;;;;;;16.03;7.30;;;1.70;99.90;;;;;;5049636;28;20237;-56
2023/03/02 10:14:03;;;;;;;12.07;6.80;;;1.80;99.90;;;;;;5043554;28;20199;-52
2023/03/02 10:16:36;;;;;;;12.57;6.70;;;1.80;99.90;;;;;;5049935;28;20688;-55
2023/03/02 10:19:09;;;;;;;11.30;6.70;;;1.80;99.90;;;;;;5045943;28;20225;-56
2023/03/02 10:21:39;;;;;;;9.73;6.60;;;1.90;99.90;;;;;;5043217;28;20566;-56
2023/03/02 10:24:15;;;;;;;11.57;7.10;;;2.00;99.90;;;;;;5041060;28;20289;-56
2023/03/02 10:26:44;;;;;;;12.57;7.23;;;2.00;99.90;;;;;;5053863;28;20229;-51
2023/03/02 10:29:46;;;;;;;11.43;6.50;;;2.10;99.90;;;;;;5055397;28;20248;-51
2023/03/02 10:32:19;;;;;;;10.80;6.53;;;2.00;99.90;;;;;;5042692;28;20222;-51
2023/03/02 10:34:48;;;;;;;8.50;5.53;;;2.00;99.90;;;;;;5049119;28;20202;-54
2023/03/02 10:37:17;;;;;;;8.10;5.37;;;1.90;99.90;;;;;;5053639;28;20190;-56
2023/03/02 10:39:44;;;;;;;10.37;6.10;;;1.80;99.90;;;;;;5047386;28;20308;-51
2023/03/02 10:42:16;;;;;;;8.23;5.23;;;1.80;99.90;;;;;;5050277;28;20937;-52
2023/03/02 10:44:48;;;;;;;11.03;6.30;;;1.90;99.90;;;;;;5051074;28;20198;-51
2023/03/02 10:47:23;;;;;;;8.87;5.47;;;1.90;99.90;;;;;;5038443;28;20215;-51
2023/03/02 10:49:51;;;;;;;10.63;6.20;;;2.00;99.90;;;;;;5045447;28;20669;-51
2023/03/02 10:52:20;;;;;;;11.50;5.87;;;2.10;99.90;;;;;;5050367;28;20215;-53
2023/03/02 10:54:47;;;;;;;12.93;7.03;;;2.20;99.90;;;;;;5046123;28;20198;-53
2023/03/02 10:57:29;;;;;;;10.47;6.50;;;2.20;99.90;;;;;;5043296;28;20205;-56
2023/03/02 11:00:02;;;;;;;9.77;5.77;;;2.10;99.90;;;;;;5059586;28;20215;-53
2023/03/02 11:02:31;;;;;;;10.50;5.57;;;2.00;99.90;;;;;;5045504;28;20230;-55
2023/03/02 11:05:18;;;;;;;8.23;4.87;;;2.10;99.90;;;;;;5032309;28;20211;-51
2023/03/02 11:07:52;;;;;;;10.63;6.07;;;2.10;99.90;;;;;;5053817;28;20194;-52
2023/03/02 11:10:20;;;;;;;9.00;5.63;;;2.20;99.90;;;;;;5040637;28;20210;-55
2023/03/02 11:12:49;;;;;;;11.43;6.53;;;2.10;99.90;;;;;;5044064;28;20267;-52
2023/03/02 11:15:22;;;;;;;10.10;5.10;;;2.20;99.90;;;;;;5049632;28;20278;-57
2023/03/02 11:17:53;;;;;;;8.80;5.23;;;2.20;99.90;;;;;;5040564;28;20207;-55
2023/03/02 11:20:23;;;;;;;8.00;5.13;;;2.30;99.90;;;;;;5044673;28;20238;-54
2023/03/02 11:22:59;;;;;;;11.13;5.77;;;2.30;99.90;;;;;;5044603;28;20305;-53
2023/03/02 11:25:30;;;;;;;9.20;5.23;;;2.30;99.90;;;;;;5038654;28;20195;-54
2023/03/02 11:28:01;;;;;;;10.77;5.53;;;2.50;99.90;;;;;;5039849;28;20206;-56
2023/03/02 11:30:33;;;;;;;10.13;5.77;;;2.50;99.90;;;;;;5052389;28;20201;-51
2023/03/02 11:33:08;;;;;;;11.70;6.03;;;2.50;99.90;;;;;;5041364;28;20289;-53
2023/03/02 11:35:40;;;;;;;9.93;5.87;;;2.50;99.90;;;;;;5035585;28;20194;-52
2023/03/02 11:38:16;;;;;;;9.63;5.63;;;2.60;99.90;;;;;;5042131;28;20581;-55
2023/03/02 11:40:48;;;;;;;8.23;5.57;;;2.60;99.90;;;;;;5039048;28;20199;-53
2023/03/02 11:43:15;;;;;;;10.63;5.30;;;2.50;99.90;;;;;;5043426;28;20195;-55
2023/03/02 11:45:46;;;;;;;8.73;4.93;;;2.60;99.90;;;;;;5051360;28;20603;-54
2023/03/02 11:48:22;;;;;;;7.83;4.87;;;2.60;99.90;;;;;;5037386;28;20203;-56
2023/03/02 11:50:54;;;;;;;7.70;5.03;;;2.60;99.90;;;;;;5040150;28;20670;-54
2023/03/02 11:53:26;;;;;;;8.97;5.63;;;2.60;99.90;;;;;;5042640;28;20225;-51
2023/03/02 11:55:53;;;;;;;10.33;5.97;;;2.70;99.90;;;;;;5053278;28;20226;-52
2023/03/02 11:58:22;;;;;;;8.33;5.70;;;2.70;99.90;;;;;;5041178;28;20681;-55
2023/03/02 12:00:52;;;;;;;9.83;5.57;;;2.70;99.90;;;;;;5048842;28;20885;-53
2023/03/02 12:03:23;;;;;;;10.20;5.73;;;2.80;99.90;;;;;;5037895;28;20207;-56
2023/03/02 12:06:01;;;;;;;8.70;5.37;;;2.90;99.90;;;;;;5039012;28;20202;-53
2023/03/02 12:08:35;;;;;;;8.53;5.37;;;2.90;99.90;;;;;;5047028;28;20207;-56
2023/03/02 12:11:05;;;;;;;6.97;4.70;;;2.90;99.90;;;;;;5045566;28;20226;-56
2023/03/02 12:13:35;;;;;;;7.23;4.80;;;2.90;99.90;;;;;;5044859;28;20207;-52
2023/03/02 12:16:17;;;;;;;7.00;4.53;;;2.80;99.90;;;;;;5052553;28;20210;-53
2023/03/02 12:18:47;;;;;;;8.23;4.07;;;2.90;99.90;;;;;;5040493;28;20218;-53
2023/03/02 12:21:17;;;;;;;7.60;3.73;;;3.00;99.90;;;;;;5037185;28;21371;-53
2023/03/02 12:23:59;;;;;;;8.63;4.60;;;3.00;99.90;;;;;;5047092;28;20195;-52
2023/03/02 12:26:37;;;;;;;7.47;4.40;;;3.00;99.90;;;;;;5047880;28;20209;-56
2023/03/02 12:29:21;;;;;;;6.63;4.53;;;3.10;99.90;;;;;;5036917;28;20209;-53
2023/03/02 12:31:52;;;;;;;6.63;4.43;;;3.20;99.90;;;;;;5040361;28;20239;-51
2023/03/02 12:34:33;;;;;;;7.70;4.80;;;3.20;99.90;;;;;;5043633;28;20207;-56
2023/03/02 12:37:05;;;;;;;7.83;4.60;;;3.30;99.90;;;;;;5023002;28;20214;-56
2023/03/02 12:39:54;;;;;;;9.57;5.10;;;3.30;99.90;;;;;;5053708;28;20270;-54
2023/03/02 12:42:41;;;;;;;12.63;5.10;;;3.40;99.90;;;;;;5040344;28;20235;-55
2023/03/02 12:45:20;;;;;;;8.17;5.20;;;3.50;99.90;;;;;;5042671;28;20211;-56
2023/03/02 12:47:56;;;;;;;9.17;5.33;;;3.50;99.90;;;;;;5046675;28;20202;-52
2023/03/02 12:50:26;;;;;;;9.37;5.17;;;3.40;99.90;;;;;;5032493;28;20194;-56
2023/03/02 12:53:00;;;;;;;8.27;5.07;;;3.40;99.90;;;;;;5046888;28;20329;-53
2023/03/02 12:55:28;;;;;;;8.30;4.77;;;3.40;99.90;;;;;;5050438;28;20197;-55
2023/03/02 12:57:57;;;;;;;11.30;5.93;;;3.50;99.90;;;;;;5036388;28;20210;-52
2023/03/02 13:00:26;;;;;;;9.17;5.60;;;3.50;99.90;;;;;;5053437;28;20226;-54
2023/03/02 13:02:56;;;;;;;11.47;6.30;;;3.50;99.90;;;;;;5041600;28;20254;-52
2023/03/02 13:05:25;;;;;;;9.90;6.40;;;3.50;99.90;;;;;;5054296;28;20368;-53
2023/03/02 13:07:58;;;;;;;12.40;5.93;;;3.60;99.90;;;;;;5021865;28;20214;-54